This is the latest recevied weather packets stored in our database for station/object N7IGG. If no packets are shown the sender has not sent any weather packets the latest 10 day(s).
| Time | Temp. | Humidity | Pressure | Rain* | Wind** | Luminosity | Snow |
|---|---|---|---|---|---|---|---|
| 1777857008 | 24.44° C | 47% | 1009.5 hPa | 0 mm | - | 228 W/m² | - |
| 1777856704 | 25° C | 48% | 1009.4 hPa | 0 mm | - | 242 W/m² | - |
| 1777856400 | 24.44° C | 51% | 1009.6 hPa | 0 mm | - | 256 W/m² | - |
| 1777856097 | 22.78° C | 55% | 1009.8 hPa | 0 mm | - | 246 W/m² | - |
| 1777855794 | 23.33° C | 52% | 1009.8 hPa | 0 mm | - | 274 W/m² | - |
| 1777855492 | 22.78° C | 54% | 1009.7 hPa | 0 mm | - | 265 W/m² | - |
| 1777855189 | 22.22° C | 57% | 1009.8 hPa | 0 mm | - | 281 W/m² | - |
| 1777854885 | 22.78° C | 55% | 1009.9 hPa | 0 mm | - | 291 W/m² | - |
| 1777854582 | 22.78° C | 55% | 1009.9 hPa | 0 mm | - | 341 W/m² | - |
| 1777854279 | 22.78° C | 55% | 1010 hPa | 0 mm | - | 278 W/m² | - |
| 1777853976 | 22.78° C | 56% | 1009.8 hPa | 0 mm | - | 382 W/m² | - |
| 1777853673 | 23.33° C | 54% | 1010 hPa | 0 mm | - | 400 W/m² | - |
| 1777853370 | 22.22° C | 57% | 1010.2 hPa | 0 mm | - | 424 W/m² | - |
| 1777853067 | 22.22° C | 57% | 1010.1 hPa | 0 mm | - | 426 W/m² | - |
| 1777852764 | 22.22° C | 57% | 1010.1 hPa | 0 mm | - | 421 W/m² | - |
| 1777852462 | 20° C | 62% | 1010.1 hPa | 0 mm | - | 334 W/m² | - |
| 1777852159 | 22.78° C | 56% | 1010.3 hPa | 0 mm | - | 423 W/m² | - |
| 1777851857 | 22.22° C | 58% | 1010.2 hPa | 0 mm | - | 432 W/m² | - |
| 1777851555 | 22.22° C | 56% | 1010.4 hPa | 0 mm | - | 434 W/m² | - |
| 1777851251 | 22.22° C | 56% | 1010.5 hPa | 0 mm | - | 438 W/m² | - |
| 1777850947 | 23.33° C | 53% | 1010.6 hPa | 0 mm | - | 436 W/m² | - |
| 1777850645 | 25.56° C | 47% | 1010.4 hPa | 0 mm | - | 476 W/m² | - |
| 1777850342 | 25.56° C | 48% | 1010.5 hPa | 0 mm | - | 497 W/m² | - |
| 1777850039 | 25.56° C | 48% | 1010.6 hPa | 0 mm | - | 515 W/m² | - |
| 1777849735 | 24.44° C | 48% | 1010.8 hPa | 0 mm | - | 537 W/m² | - |
* Rain latest hour (hover to see other rain measurements)
** Current wind speed in m/s (hover to see current wind gust speed)